Stella Polaris — PEBD — position and weather

sailwx.info

Track history (hours):
 
Tides and Currents Weather Stations Pressure Air Temp Water Temp Dewpoint Dewpoint Depression Visibility Wind Speed Wind Dir Waves Ship Positions

Stella Polaris

Last reported at 2014-Aug-15 07:25 UTC. Time now 2014-Aug-20 16:33 UTC.
Position N 49°21' W 066°08'.

Length 117 m; draft 5.3 m.

Type: Ship. MMSI: 245911000.

Date/timePositionNaut miles runAvg speedWind from/ knotsBaromVisibWave heightAir tempDewpointWater temp
2014-Aug-15 07:25N 49°21' W 066°08'1214.3
2014-Aug-15 06:33N 49°17' W 066°26'1514.8
2014-Aug-15 05:34N 49°13' W 066°48'1514.4
2014-Aug-15 04:33N 49°08' W 067°08'1414.6
2014-Aug-15 03:33N 49°03' W 067°29'1514.6
2014-Aug-15 02:33N 48°57' W 067°49'1515.2
2014-Aug-15 01:32N 48°48' W 068°09'1515.0
2014-Aug-15 00:33N 48°40' W 068°28'1514.8
2014-Aug-14 23:33N 48°32' W 068°46'3612.2
2014-Aug-14 20:33N 48°11' W 069°31'10 9.8
2014-Aug-14 19:33N 48°02' W 069°38'1212.4
2014-Aug-14 18:33N 47°52' W 069°48'1514.8
2014-Aug-14 17:33N 47°39' W 069°60'1817.0
2014-Aug-14 16:31N 47°27' W 070°18'1717.5
2014-Aug-14 15:33N 47°14' W 070°34'1616.0
2014-Aug-14 14:33N 47°00' W 070°47'1312.8
2014-Aug-14 13:33N 46°51' W 070°60'9 9.2
2014-Aug-14 12:34N 46°48' W 071°12'10 9.5
2014-Aug-14 11:34N 46°43' W 071°24'1612.8
2014-Aug-14 10:17N 46°40' W 071°48'1114.8
2014-Aug-14 09:33N 46°35' W 072°02'1514.7
2014-Aug-14 08:33N 46°26' W 072°19'1413.9
2014-Aug-14 07:33N 46°18' W 072°35'1813.9
2014-Aug-14 06:15N 46°08' W 072°57'913.4
2014-Aug-14 05:33N 46°03' W 073°08'1414.2
2014-Aug-14 04:34N 45°50' W 073°17'1413.9
2014-Aug-14 03:34N 45°39' W 073°29'9 9.3
2014-Aug-14 02:34N 45°30' W 073°31'3 3.3
2014-Aug-14 01:34N 45°27' W 073°30'4 3.8
2014-Aug-14 00:33N 45°24' W 073°35'6 6.3
2014-Aug-13 23:34N 45°24' W 073°44'10 9.7
2014-Aug-13 22:34N 45°19' W 073°55'3 2.6
2014-Aug-13 21:34N 45°17' W 073°57'1110.5
2014-Aug-13 20:33N 45°14' W 074°11'1414.0
2014-Aug-13 19:33N 45°07' W 074°28'10 9.6
2014-Aug-13 18:33N 45°01' W 074°39'6 5.7
2014-Aug-13 17:32N 44°59' W 074°47'3 3.0
2014-Aug-13 16:33N 44°59' W 074°51'6 5.6
2014-Aug-13 15:33N 44°57' W 074°59'1010.1
2014-Aug-13 14:33N 44°53' W 075°12'6 5.9
2014-Aug-13 13:33N 44°50' W 075°19'6 6.1
2014-Aug-13 12:33N 44°46' W 075°25'1413.8
2014-Aug-13 11:33N 44°36' W 075°39'1111.0
2014-Aug-13 10:33N 44°27' W 075°48'1111.1
2014-Aug-13 09:33N 44°19' W 075°58'1211.3
2014-Aug-13 08:31N 44°13' W 076°12'1010.3
2014-Aug-13 07:33N 44°07' W 076°23'1414.1
2014-Aug-13 06:33N 43°55' W 076°35'9613.7
2014-Aug-12 23:33N 43°29' W 078°42'1313.3
2014-Aug-12 22:33N 43°26' W 078°60'  
2014-Aug-10 09:25N 43°59' W 076°34'1112.6
2014-Aug-10 08:34N 44°07' W 076°23'1210.7
2014-Aug-10 07:28N 44°14' W 076°10'93 7.2
2014-Aug-09 18:32N 45°09' W 074°23'1111.0
2014-Aug-09 17:33N 45°14' W 074°10'9 8.6
2014-Aug-09 16:32N 45°15' W 073°58'3 3.4
2014-Aug-09 15:33N 45°18' W 073°56'1 0.7
2014-Aug-09 14:33N 45°19' W 073°55'6 5.9
2014-Aug-09 13:33N 45°23' W 073°49'8 7.9
2014-Aug-09 12:33N 45°24' W 073°38'3 2.6
2014-Aug-09 11:33N 45°24' W 073°34'3 3.3
2014-Aug-09 10:33N 45°26' W 073°30'3 3.5
2014-Aug-09 09:33N 45°30' W 073°31'5 5.1
2014-Aug-09 08:33N 45°35' W 073°30'4 3.6
2014-Aug-09 07:33N 45°38' W 073°29'1 0.6
2014-Aug-09 06:33N 45°39' W 073°29'10 9.5
2014-Aug-09 05:33N 45°47' W 073°21'1010.4
2014-Aug-09 04:33N 45°56' W 073°13'10 9.9
2014-Aug-09 03:33N 46°04' W 073°05'1110.2
2014-Aug-09 02:28N 46°12' W 072°53'1011.4
2014-Aug-09 01:33N 46°16' W 072°40'10 9.5
2014-Aug-09 00:33N 46°22' W 072°29'1110.7
2014-Aug-08 23:33N 46°27' W 072°16'  
Track history (hours):
 
Tides and Currents Weather Stations Pressure Air Temp Water Temp Dewpoint Dewpoint Depression Visibility Wind Speed Wind Dir Waves Ship Positions

Stella Polaris

Last reported at 2014-Aug-15 07:25 UTC. Time now 2014-Aug-20 16:33 UTC.
Position N 49°21' W 066°08'.

Length 117 m; draft 5.3 m.

Type: Ship. MMSI: 245911000.

Date/timePositionNaut miles runAvg speedWind from/ knotsBaromVisibWave heightAir tempDewpointWater temp
2014-Aug-15 07:25N 49°21' W 066°08'1214.3
2014-Aug-15 06:33N 49°17' W 066°26'1514.8
2014-Aug-15 05:34N 49°13' W 066°48'1514.4
2014-Aug-15 04:33N 49°08' W 067°08'1414.6
2014-Aug-15 03:33N 49°03' W 067°29'1514.6
2014-Aug-15 02:33N 48°57' W 067°49'1515.2
2014-Aug-15 01:32N 48°48' W 068°09'1515.0
2014-Aug-15 00:33N 48°40' W 068°28'1514.8
2014-Aug-14 23:33N 48°32' W 068°46'3612.2
2014-Aug-14 20:33N 48°11' W 069°31'10 9.8
2014-Aug-14 19:33N 48°02' W 069°38'1212.4
2014-Aug-14 18:33N 47°52' W 069°48'1514.8
2014-Aug-14 17:33N 47°39' W 069°60'1817.0
2014-Aug-14 16:31N 47°27' W 070°18'1717.5
2014-Aug-14 15:33N 47°14' W 070°34'1616.0
2014-Aug-14 14:33N 47°00' W 070°47'1312.8
2014-Aug-14 13:33N 46°51' W 070°60'9 9.2
2014-Aug-14 12:34N 46°48' W 071°12'10 9.5
2014-Aug-14 11:34N 46°43' W 071°24'1612.8
2014-Aug-14 10:17N 46°40' W 071°48'1114.8
2014-Aug-14 09:33N 46°35' W 072°02'1514.7
2014-Aug-14 08:33N 46°26' W 072°19'1413.9
2014-Aug-14 07:33N 46°18' W 072°35'1813.9
2014-Aug-14 06:15N 46°08' W 072°57'913.4
2014-Aug-14 05:33N 46°03' W 073°08'1414.2
2014-Aug-14 04:34N 45°50' W 073°17'1413.9
2014-Aug-14 03:34N 45°39' W 073°29'9 9.3
2014-Aug-14 02:34N 45°30' W 073°31'3 3.3
2014-Aug-14 01:34N 45°27' W 073°30'4 3.8
2014-Aug-14 00:33N 45°24' W 073°35'6 6.3
2014-Aug-13 23:34N 45°24' W 073°44'10 9.7
2014-Aug-13 22:34N 45°19' W 073°55'3 2.6
2014-Aug-13 21:34N 45°17' W 073°57'1110.5
2014-Aug-13 20:33N 45°14' W 074°11'1414.0
2014-Aug-13 19:33N 45°07' W 074°28'10 9.6
2014-Aug-13 18:33N 45°01' W 074°39'6 5.7
2014-Aug-13 17:32N 44°59' W 074°47'3 3.0
2014-Aug-13 16:33N 44°59' W 074°51'6 5.6
2014-Aug-13 15:33N 44°57' W 074°59'1010.1
2014-Aug-13 14:33N 44°53' W 075°12'6 5.9
2014-Aug-13 13:33N 44°50' W 075°19'6 6.1
2014-Aug-13 12:33N 44°46' W 075°25'1413.8
2014-Aug-13 11:33N 44°36' W 075°39'1111.0
2014-Aug-13 10:33N 44°27' W 075°48'1111.1
2014-Aug-13 09:33N 44°19' W 075°58'1211.3
2014-Aug-13 08:31N 44°13' W 076°12'1010.3
2014-Aug-13 07:33N 44°07' W 076°23'1414.1
2014-Aug-13 06:33N 43°55' W 076°35'9613.7
2014-Aug-12 23:33N 43°29' W 078°42'1313.3
2014-Aug-12 22:33N 43°26' W 078°60'  
2014-Aug-10 09:25N 43°59' W 076°34'1112.6
2014-Aug-10 08:34N 44°07' W 076°23'1210.7
2014-Aug-10 07:28N 44°14' W 076°10'93 7.2
2014-Aug-09 18:32N 45°09' W 074°23'1111.0
2014-Aug-09 17:33N 45°14' W 074°10'9 8.6
2014-Aug-09 16:32N 45°15' W 073°58'3 3.4
2014-Aug-09 15:33N 45°18' W 073°56'1 0.7
2014-Aug-09 14:33N 45°19' W 073°55'6 5.9
2014-Aug-09 13:33N 45°23' W 073°49'8 7.9
2014-Aug-09 12:33N 45°24' W 073°38'3 2.6
2014-Aug-09 11:33N 45°24' W 073°34'3 3.3
2014-Aug-09 10:33N 45°26' W 073°30'3 3.5
2014-Aug-09 09:33N 45°30' W 073°31'5 5.1
2014-Aug-09 08:33N 45°35' W 073°30'4 3.6
2014-Aug-09 07:33N 45°38' W 073°29'1 0.6
2014-Aug-09 06:33N 45°39' W 073°29'10 9.5
2014-Aug-09 05:33N 45°47' W 073°21'1010.4
2014-Aug-09 04:33N 45°56' W 073°13'10 9.9
2014-Aug-09 03:33N 46°04' W 073°05'1110.2
2014-Aug-09 02:28N 46°12' W 072°53'1011.4
2014-Aug-09 01:33N 46°16' W 072°40'10 9.5
2014-Aug-09 00:33N 46°22' W 072°29'1110.7
2014-Aug-08 23:33N 46°27' W 072°16'  

Dump ship's entire track history